Time;durP1;ratioP1;P1;durP2;ratioP2;P2;SDS_P1;SDS_P2;PMS_P1;PMS_P2;Temp;Humidity;BMP_temperature;BMP_pressure;BME280_temperature;BME280_humidity;BME280_pressure;Samples;Min_cycle;Max_cycle;Signal;HPM_P1;HPM_P2
2022/03/31 00:00:17;;;;;;;21.60;11.93;;;;;;;12.85;74.17;98821.72;5099684;28;20101;-69
2022/03/31 00:02:43;;;;;;;24.60;11.55;;;;;;;12.84;74.55;98825.47;5101463;28;20032;-66
2022/03/31 00:05:09;;;;;;;21.48;11.02;;;;;;;12.78;74.10;98805.50;5095909;28;20098;-65
2022/03/31 00:07:34;;;;;;;18.27;12.13;;;;;;;12.85;73.39;98806.44;5098018;28;20063;-66
2022/03/31 00:10:00;;;;;;;18.42;11.07;;;;;;;12.86;73.74;98804.56;5088872;28;20040;-66
2022/03/31 00:12:26;;;;;;;24.67;12.15;;;;;;;12.75;73.16;98781.69;5095474;28;20019;-65
2022/03/31 00:14:52;;;;;;;19.67;11.63;;;;;;;12.83;73.22;98796.91;5095609;28;22146;-66
2022/03/31 00:17:18;;;;;;;25.15;13.02;;;;;;;12.81;73.51;98791.69;5095906;28;20030;-65
2022/03/31 00:19:44;;;;;;;22.63;11.98;;;;;;;12.80;72.96;98784.63;5092740;28;20093;-66
2022/03/31 00:22:09;;;;;;;21.05;11.82;;;;;;;12.77;73.44;98770.72;5092225;28;20123;-65
2022/03/31 00:24:35;;;;;;;22.30;11.60;;;;;;;12.81;73.30;98786.31;5092824;28;20119;-66
2022/03/31 00:27:00;;;;;;;20.52;11.85;;;;;;;12.79;73.16;98780.28;5097889;28;20024;-66
2022/03/31 00:29:27;;;;;;;22.77;11.70;;;;;;;12.77;73.55;98792.25;5092775;28;20441;-66
2022/03/31 00:31:53;;;;;;;23.15;11.55;;;;;;;12.79;73.38;98779.44;5095030;28;20043;-66
2022/03/31 00:34:19;;;;;;;20.92;11.80;;;;;;;12.76;73.50;98771.72;5086591;28;20028;-65
2022/03/31 00:36:44;;;;;;;21.92;11.77;;;;;;;12.74;72.86;98765.72;5100197;28;20353;-69
2022/03/31 00:41:54;;;;;;;30.88;14.57;;;;;;;12.74;71.90;98755.78;5100110;28;20039;-69
2022/03/31 00:44:19;;;;;;;38.70;15.68;;;;;;;12.75;72.35;98753.94;5092265;28;20411;-69
2022/03/31 00:46:52;;;;;;;28.98;16.25;;;;;;;12.73;71.55;98758.66;5097468;28;20478;-69
2022/03/31 00:49:19;;;;;;;34.05;16.13;;;;;;;12.70;71.33;98754.47;5100078;28;20152;-69
2022/03/31 00:51:45;;;;;;;31.88;16.88;;;;;;;12.75;70.93;98756.63;5098824;28;20035;-69
2022/03/31 00:54:12;;;;;;;29.33;15.02;;;;;;;12.70;71.05;98750.94;5101022;28;20374;-70
2022/03/31 00:56:40;;;;;;;26.88;14.18;;;;;;;12.77;70.41;98754.59;5094538;28;20042;-69
2022/03/31 00:59:08;;;;;;;24.38;14.85;;;;;;;12.69;70.64;98742.06;5101403;28;20059;-69
2022/03/31 01:01:37;;;;;;;30.02;15.48;;;;;;;12.76;70.90;98751.06;5098782;28;20389;-69
2022/03/31 01:04:04;;;;;;;27.00;17.00;;;;;;;12.77;70.76;98738.44;5099354;28;20032;-69
2022/03/31 01:06:29;;;;;;;32.65;17.75;;;;;;;12.77;69.98;98746.53;5104216;28;20027;-69
2022/03/31 01:08:55;;;;;;;31.83;17.52;;;;;;;12.73;70.46;98735.28;5102160;28;20173;-69
2022/03/31 01:11:21;;;;;;;29.95;16.15;;;;;;;12.74;69.87;98728.88;5098174;28;20020;-69
2022/03/31 01:13:47;;;;;;;28.83;15.20;;;;;;;12.74;70.05;98728.06;5098554;28;20046;-69
2022/03/31 01:16:12;;;;;;;23.52;15.30;;;;;;;12.71;70.15;98723.88;5096323;28;20027;-69
2022/03/31 01:18:38;;;;;;;25.15;14.70;;;;;;;12.71;69.51;98721.16;5077431;28;20032;-69
2022/03/31 01:21:04;;;;;;;24.58;13.55;;;;;;;12.69;69.63;98719.69;5093665;28;20024;-70
2022/03/31 01:23:30;;;;;;;23.65;13.85;;;;;;;12.61;69.44;98712.56;5100619;28;20137;-69
2022/03/31 01:25:56;;;;;;;23.05;13.85;;;;;;;12.67;69.40;98716.38;5100476;28;20035;-69
2022/03/31 01:28:22;;;;;;;21.52;13.18;;;;;;;12.62;68.96;98708.03;5099743;28;20077;-69
2022/03/31 01:30:47;;;;;;;20.95;13.40;;;;;;;12.58;69.21;98715.63;5095777;28;20028;-68
2022/03/31 01:33:14;;;;;;;21.85;13.07;;;;;;;12.56;69.23;98709.59;5094239;28;20027;-69
2022/03/31 01:35:40;;;;;;;23.30;13.02;;;;;;;12.48;69.28;98700.81;5098084;28;20027;-69
2022/03/31 01:38:06;;;;;;;20.50;12.25;;;;;;;12.60;69.45;98718.13;5095411;28;20024;-69
2022/03/31 01:40:32;;;;;;;24.50;12.68;;;;;;;12.61;69.57;98711.75;5094580;28;20051;-69
2022/03/31 01:42:57;;;;;;;21.75;11.77;;;;;;;12.58;69.38;98709.44;5099882;28;20020;-68
2022/03/31 01:45:23;;;;;;;24.17;12.13;;;;;;;12.52;69.52;98692.19;5093156;28;20047;-69
2022/03/31 01:47:49;;;;;;;23.73;12.45;;;;;;;12.54;69.39;98698.19;5092723;28;20020;-69
2022/03/31 01:50:15;;;;;;;23.30;12.88;;;;;;;12.54;70.03;98683.94;5099622;28;20031;-69
2022/03/31 01:52:42;;;;;;;27.80;13.00;;;;;;;12.56;68.82;98689.94;5094077;28;20040;-69
2022/03/31 01:55:08;;;;;;;23.02;12.45;;;;;;;12.56;69.53;98687.25;5098258;28;20032;-69
2022/03/31 01:57:34;;;;;;;26.02;12.85;;;;;;;12.54;69.57;98689.31;5095049;28;20064;-69
2022/03/31 02:00:03;;;;;;;24.42;13.88;;;;;;;12.53;69.34;98696.53;5082058;28;20032;-69
2022/03/31 02:02:30;;;;;;;29.75;16.15;;;;;;;12.55;69.15;98701.72;5080347;28;20092;-69
2022/03/31 02:04:55;;;;;;;28.70;15.30;;;;;;;12.51;69.88;98685.13;5099659;28;20052;-69
2022/03/31 02:07:21;;;;;;;26.90;14.43;;;;;;;12.48;69.48;98677.41;5098663;28;20059;-68
2022/03/31 02:09:46;;;;;;;27.15;15.10;;;;;;;12.41;69.17;98664.94;5095247;28;20506;-68
2022/03/31 02:12:12;;;;;;;27.05;16.50;;;;;;;12.50;69.35;98677.25;5095610;28;20046;-69
2022/03/31 02:14:38;;;;;;;31.70;17.58;;;;;;;12.40;69.74;98655.19;5085165;28;20038;-69
2022/03/31 02:17:08;;;;;;;31.98;17.20;;;;;;;12.45;69.31;98655.47;5094435;28;20024;-65
2022/03/31 02:19:37;;;;;;;30.52;14.93;;;;;;;12.42;69.34;98662.06;5094655;28;20482;-65
2022/03/31 02:22:04;;;;;;;29.50;13.73;;;;;;;12.39;69.64;98665.13;5089976;28;20028;-64
2022/03/31 02:24:30;;;;;;;25.95;14.48;;;;;;;12.39;69.97;98675.03;5090895;28;20384;-65
2022/03/31 02:26:56;;;;;;;25.15;14.15;;;;;;;12.34;69.61;98670.22;5093758;28;20038;-64
2022/03/31 02:29:21;;;;;;;20.17;11.70;;;;;;;12.36;69.88;98676.25;5093622;28;20020;-65
2022/03/31 02:31:47;;;;;;;21.45;12.57;;;;;;;12.34;70.18;98664.84;5093094;28;20028;-65
2022/03/31 02:34:14;;;;;;;21.63;13.10;;;;;;;12.32;70.25;98656.09;5094200;28;20047;-65
2022/03/31 02:36:42;;;;;;;20.27;13.27;;;;;;;12.27;70.28;98639.72;5090262;28;20020;-65
2022/03/31 02:39:09;;;;;;;20.15;11.82;;;;;;;12.33;70.08;98655.13;5090286;28;20464;-66
2022/03/31 02:41:35;;;;;;;19.40;12.55;;;;;;;12.32;70.28;98648.03;5091481;28;20024;-65
2022/03/31 02:44:02;;;;;;;19.90;12.25;;;;;;;12.26;69.90;98638.06;5091033;28;20024;-65
2022/03/31 02:46:28;;;;;;;23.90;12.77;;;;;;;12.32;69.73;98648.03;5094643;28;20023;-65
2022/03/31 02:48:57;;;;;;;30.33;14.15;;;;;;;12.36;69.15;98643.16;5094747;28;20098;-65
2022/03/31 02:51:23;;;;;;;24.50;13.10;;;;;;;12.30;69.76;98649.25;5097861;28;20037;-66
2022/03/31 02:56:34;;;;;;;21.83;12.70;;;;;;;12.28;69.54;98637.88;5101596;28;20125;-65
2022/03/31 02:59:00;;;;;;;21.10;12.00;;;;;;;12.19;69.80;98626.38;5095981;28;20492;-65
2022/03/31 03:01:27;;;;;;;29.13;13.23;;;;;;;12.28;69.73;98635.19;5094248;28;20031;-65
2022/03/31 03:03:54;;;;;;;23.35;12.75;;;;;;;12.19;70.31;98618.31;5101413;28;20386;-65
2022/03/31 03:06:19;;;;;;;20.02;12.55;;;;;;;12.25;69.65;98627.50;5100514;28;20041;-69
2022/03/31 03:08:46;;;;;;;25.30;12.25;;;;;;;12.23;69.75;98625.00;5099082;28;20047;-69
2022/03/31 03:11:12;;;;;;;21.88;11.90;;;;;;;12.23;70.05;98624.16;5099760;28;20537;-68
2022/03/31 03:13:38;;;;;;;25.88;13.00;;;;;;;12.24;69.65;98615.91;5095982;28;20028;-68
2022/03/31 03:16:08;;;;;;;21.20;12.35;;;;;;;12.23;69.49;98616.09;5099247;28;20030;-68
2022/03/31 03:18:37;;;;;;;30.60;15.27;;;;;;;12.24;69.38;98620.44;5098379;28;20173;-68
2022/03/31 03:21:04;;;;;;;28.35;15.02;;;;;;;12.19;68.96;98618.31;5086270;28;20123;-69
2022/03/31 03:23:31;;;;;;;33.95;17.70;;;;;;;12.24;69.28;98621.28;5102245;28;20074;-68
2022/03/31 03:25:57;;;;;;;41.25;19.67;;;;;;;12.25;69.65;98619.44;5102895;28;21262;-68
2022/03/31 03:28:22;;;;;;;32.65;16.98;;;;;;;12.23;69.49;98611.56;5100485;28;20034;-68
2022/03/31 03:30:48;;;;;;;29.88;15.82;;;;;;;12.22;69.85;98612.56;5098606;28;20023;-68
2022/03/31 03:33:14;;;;;;;23.30;13.38;;;;;;;12.21;69.61;98607.38;5100654;28;20030;-68
2022/03/31 03:35:39;;;;;;;28.35;13.25;;;;;;;12.23;69.55;98611.56;5078391;28;20034;-68
2022/03/31 03:38:04;;;;;;;27.48;13.32;;;;;;;12.24;69.38;98601.63;5099015;28;20024;-67
2022/03/31 03:40:31;;;;;;;24.88;12.95;;;;;;;12.16;69.44;98585.59;5095243;28;20040;-68
2022/03/31 03:42:57;;;;;;;25.58;13.60;;;;;;;12.22;68.77;98590.25;5102508;28;20028;-67
2022/03/31 03:45:23;;;;;;;33.72;16.45;;;;;;;12.23;69.08;98591.91;5100578;28;20039;-67
2022/03/31 03:47:49;;;;;;;38.50;18.58;;;;;;;12.23;69.31;98592.75;5098482;28;20049;-68
2022/03/31 03:50:15;;;;;;;35.17;19.27;;;;;;;12.22;69.13;98576.81;5099850;28;20069;-64
2022/03/31 03:52:41;;;;;;;40.85;21.33;;;;;;;12.22;69.09;98583.00;5096187;28;20032;-65
2022/03/31 03:55:07;;;;;;;36.60;19.65;;;;;;;12.19;68.70;98561.06;5097218;28;20028;-65
2022/03/31 03:57:32;;;;;;;36.90;18.77;;;;;;;12.08;68.56;98543.53;5093391;28;20086;-65
2022/03/31 03:59:58;;;;;;;36.03;19.05;;;;;;;12.22;68.58;98574.13;5098837;28;20053;-66
2022/03/31 04:02:23;;;;;;;33.70;16.77;;;;;;;12.13;68.68;98559.94;5097558;28;20027;-66
2022/03/31 04:04:49;;;;;;;33.65;16.70;;;;;;;12.20;68.81;98565.41;5096633;28;20034;-66
2022/03/31 04:07:14;;;;;;;27.38;14.93;;;;;;;12.19;68.90;98572.63;5095795;28;20093;-66
2022/03/31 04:09:40;;;;;;;25.90;13.88;;;;;;;12.19;68.77;98577.19;5094904;28;20059;-66
2022/03/31 04:12:05;;;;;;;25.50;13.98;;;;;;;12.18;68.87;98568.28;5098812;28;20036;-66
2022/03/31 04:14:31;;;;;;;27.60;12.70;;;;;;;12.17;68.75;98571.16;5095903;28;20019;-66
2022/03/31 04:16:56;;;;;;;21.50;12.20;;;;;;;12.13;68.49;98562.63;5092979;28;20372;-66
2022/03/31 04:19:22;;;;;;;31.17;13.38;;;;;;;12.12;68.44;98557.44;5095494;28;20023;-66
2022/03/31 04:21:48;;;;;;;27.83;13.02;;;;;;;12.13;69.09;98557.28;5101847;28;20020;-66
2022/03/31 04:24:14;;;;;;;21.55;13.18;;;;;;;12.13;68.70;98567.16;5088999;28;20027;-65
2022/03/31 04:26:40;;;;;;;23.23;12.85;;;;;;;12.08;68.91;98559.66;5099449;28;20047;-65
2022/03/31 04:29:08;;;;;;;24.73;12.20;;;;;;;12.05;68.98;98559.19;5095095;28;20028;-66
2022/03/31 04:31:36;;;;;;;20.65;12.52;;;;;;;12.08;69.12;98559.66;5093420;28;20038;-66
2022/03/31 04:34:02;;;;;;;22.30;12.43;;;;;;;12.11;69.33;98563.81;5091558;28;20060;-67
2022/03/31 04:36:28;;;;;;;20.60;13.00;;;;;;;11.99;69.23;98541.97;5093973;28;20074;-66
2022/03/31 04:38:53;;;;;;;21.45;12.13;;;;;;;12.06;68.81;98555.50;5084154;28;20088;-66
2022/03/31 04:41:18;;;;;;;25.95;12.65;;;;;;;12.12;68.84;98554.75;5097121;28;20036;-66
2022/03/31 04:43:44;;;;;;;28.77;13.70;;;;;;;12.04;69.02;98549.47;5094107;28;20060;-66
2022/03/31 04:46:09;;;;;;;24.00;13.38;;;;;;;12.08;69.67;98554.28;5090282;28;20078;-66
2022/03/31 04:48:35;;;;;;;21.23;12.82;;;;;;;12.06;69.01;98547.44;5095672;28;20022;-66
2022/03/31 04:51:01;;;;;;;19.58;13.10;;;;;;;12.07;68.73;98551.78;5095685;28;20031;-66
2022/03/31 04:53:26;;;;;;;23.33;12.80;;;;;;;12.01;69.18;98531.88;5092409;28;20032;-66
2022/03/31 04:55:52;;;;;;;26.30;13.43;;;;;;;12.07;68.63;98541.03;5097843;28;20110;-66
2022/03/31 04:58:17;;;;;;;24.75;13.98;;;;;;;12.07;69.06;98549.94;5089789;28;20065;-66
2022/03/31 05:00:43;;;;;;;23.40;13.00;;;;;;;12.06;68.96;98540.19;5097604;28;20031;-66
2022/03/31 05:03:08;;;;;;;31.70;13.50;;;;;;;12.09;68.51;98539.81;5095789;28;20417;-65
2022/03/31 05:05:34;;;;;;;22.38;12.80;;;;;;;12.06;69.13;98542.06;5096266;28;20028;-67
2022/03/31 05:07:59;;;;;;;18.85;11.93;;;;;;;12.09;68.49;98537.16;5096933;28;20043;-65
2022/03/31 05:10:25;;;;;;;24.50;13.32;;;;;;;12.10;68.67;98543.34;5075376;28;20100;-66
2022/03/31 05:12:50;;;;;;;24.73;12.57;;;;;;;12.11;68.53;98547.69;5096032;28;20031;-66
2022/03/31 05:15:16;;;;;;;24.27;12.00;;;;;;;12.09;68.60;98544.38;5094889;28;20039;-66
2022/03/31 05:17:41;;;;;;;23.13;12.82;;;;;;;12.08;68.42;98548.91;5097232;28;20043;-66
2022/03/31 05:20:12;;;;;;;24.48;12.48;;;;;;;12.11;68.38;98543.19;5084329;28;20028;-65
2022/03/31 05:22:39;;;;;;;22.02;13.38;;;;;;;12.13;68.07;98549.22;5093305;28;20108;-66
2022/03/31 05:25:07;;;;;;;24.23;12.55;;;;;;;12.16;68.14;98545.31;5094962;28;20477;-65
2022/03/31 05:27:33;;;;;;;24.35;13.38;;;;;;;12.16;68.53;98548.00;5095008;28;20492;-65
2022/03/31 05:29:58;;;;;;;27.33;13.65;;;;;;;12.12;68.31;98547.50;5097108;28;20024;-65
2022/03/31 05:32:24;;;;;;;31.00;14.50;;;;;;;12.19;68.23;98555.69;5091771;28;20464;-64
2022/03/31 05:34:51;;;;;;;29.85;13.43;;;;;;;12.21;67.81;98554.47;5096654;28;20047;-65
2022/03/31 05:37:16;;;;;;;27.17;14.05;;;;;;;12.23;67.76;98562.34;5090756;28;20036;-66
2022/03/31 05:39:41;;;;;;;27.65;14.30;;;;;;;12.24;67.92;98553.25;5090464;28;20544;-66
2022/03/31 05:42:07;;;;;;;23.90;13.98;;;;;;;12.26;67.59;98546.69;5093276;28;20071;-66
2022/03/31 05:44:33;;;;;;;29.92;14.32;;;;;;;12.27;68.08;98553.72;5091038;28;20107;-65
2022/03/31 05:46:58;;;;;;;26.73;12.95;;;;;;;12.22;68.24;98531.94;5093067;28;20457;-65
2022/03/31 05:49:24;;;;;;;27.30;13.48;;;;;;;12.29;68.55;98545.47;5093605;28;20022;-65
2022/03/31 05:51:49;;;;;;;25.60;13.77;;;;;;;12.31;67.90;98552.31;5082207;28;20024;-64
2022/03/31 05:54:15;;;;;;;23.67;13.00;;;;;;;12.30;67.59;98550.66;5092260;28;20032;-65
2022/03/31 05:56:41;;;;;;;26.08;13.85;;;;;;;12.34;67.87;98551.09;5081854;28;20032;-66
2022/03/31 05:59:08;;;;;;;22.17;12.98;;;;;;;12.34;67.58;98553.78;5094066;28;20024;-66
2022/03/31 06:01:34;;;;;;;25.55;14.43;;;;;;;12.32;67.76;98551.28;5095435;28;20028;-65
2022/03/31 06:03:59;;;;;;;24.10;14.38;;;;;;;12.35;67.75;98555.47;5095400;28;20577;-66
2022/03/31 06:06:25;;;;;;;28.05;14.10;;;;;;;12.27;68.25;98548.34;5093935;28;20040;-66
2022/03/31 06:08:50;;;;;;;28.00;14.48;;;;;;;12.41;69.01;98573.53;5096837;28;20101;-66
2022/03/31 06:11:16;;;;;;;25.65;14.05;;;;;;;12.41;69.40;98568.16;5094650;28;20038;-66
2022/03/31 06:13:42;;;;;;;30.08;15.02;;;;;;;12.36;69.74;98555.28;5096428;28;20100;-66
2022/03/31 06:16:10;;;;;;;24.13;14.50;;;;;;;12.42;69.44;98564.44;5092607;28;20030;-65
2022/03/31 06:18:36;;;;;;;30.90;14.13;;;;;;;12.42;69.82;98561.75;5093813;28;20120;-66
2022/03/31 06:21:03;;;;;;;30.25;14.15;;;;;;;12.49;71.26;98565.34;5098386;28;20107;-64
2022/03/31 06:23:29;;;;;;;31.60;14.18;;;;;;;12.52;71.36;98570.34;5102299;28;20042;-66
2022/03/31 06:25:54;;;;;;;27.15;13.77;;;;;;;12.56;71.25;98567.09;5096932;28;20032;-67
2022/03/31 06:28:20;;;;;;;25.92;14.55;;;;;;;12.59;71.10;98574.78;5100757;28;20051;-66
2022/03/31 06:30:47;;;;;;;27.48;13.73;;;;;;;12.59;70.88;98584.69;5101144;28;20027;-65
2022/03/31 06:33:17;;;;;;;27.77;13.82;;;;;;;12.59;70.92;98582.84;5096150;28;20827;-66
2022/03/31 06:35:43;;;;;;;29.80;13.68;;;;;;;12.63;70.50;98573.38;5094990;28;20028;-65
2022/03/31 06:38:10;;;;;;;28.52;13.82;;;;;;;12.66;70.01;98580.22;5100225;28;20026;-65
2022/03/31 06:40:37;;;;;;;28.00;13.63;;;;;;;12.67;69.60;98576.53;5092562;28;20038;-66
2022/03/31 06:43:04;;;;;;;27.88;13.13;;;;;;;12.68;69.42;98575.50;5097778;28;20023;-66
2022/03/31 06:45:30;;;;;;;27.10;14.40;;;;;;;12.58;69.57;98562.34;5097636;28;20039;-65
2022/03/31 06:47:57;;;;;;;25.98;14.50;;;;;;;12.68;69.53;98578.19;5095144;28;20044;-66
2022/03/31 06:50:22;;;;;;;28.42;13.88;;;;;;;12.71;69.33;98573.25;5092544;28;20042;-65
2022/03/31 06:52:48;;;;;;;25.35;14.45;;;;;;;12.65;70.87;98557.88;5085031;28;20024;-64
2022/03/31 06:55:13;;;;;;;28.70;14.45;;;;;;;12.76;71.84;98570.81;5097894;28;20028;-66
2022/03/31 06:57:39;;;;;;;29.23;15.57;;;;;;;12.78;72.70;98576.00;5098970;28;20085;-66
2022/03/31 07:00:05;;;;;;;29.38;14.05;;;;;;;12.81;73.58;98565.72;5097301;28;20044;-65
2022/03/31 07:02:30;;;;;;;31.98;15.95;;;;;;;12.86;74.36;98573.19;5095216;28;20044;-66
2022/03/31 07:04:56;;;;;;;36.72;17.27;;;;;;;12.89;77.38;98568.25;5098450;28;20055;-67
2022/03/31 07:07:21;;;;;;;42.35;17.23;;;;;;;12.86;76.96;98560.56;5094774;28;20043;-67
2022/03/31 07:09:47;;;;;;;51.53;16.80;;;;;;;12.92;76.16;98565.19;5101988;28;20044;-67
2022/03/31 07:12:12;;;;;;;35.60;15.43;;;;;;;13.08;73.88;98564.97;5102143;28;20032;-67
2022/03/31 07:14:38;;;;;;;57.72;18.02;;;;;;;13.10;75.51;98560.22;5089364;28;20076;-67
2022/03/31 07:17:04;;;;;;;28.60;13.85;;;;;;;13.04;74.39;98546.72;5096764;28;20101;-67
2022/03/31 07:19:29;;;;;;;31.02;15.07;;;;;;;13.00;76.74;98548.13;5094125;28;20028;-68
2022/03/31 07:21:55;;;;;;;28.00;14.38;;;;;;;12.96;77.21;98546.81;5097532;28;20711;-68
2022/03/31 07:24:21;;;;;;;27.45;14.80;;;;;;;12.89;79.04;98544.06;5104241;28;20165;-70
2022/03/31 07:26:47;;;;;;;33.95;16.52;;;;;;;12.98;78.67;98550.13;5094404;28;20039;-70
2022/03/31 07:29:12;;;;;;;31.98;15.38;;;;;;;12.94;79.19;98543.47;5100876;28;20059;-69
2022/03/31 07:31:38;;;;;;;32.08;14.23;;;;;;;13.04;78.29;98547.56;5093562;28;20035;-69
2022/03/31 07:34:03;;;;;;;25.73;14.25;;;;;;;13.00;79.11;98550.81;5094039;28;20027;-70
2022/03/31 07:36:29;;;;;;;27.85;13.23;;;;;;;12.90;79.84;98536.81;5094124;28;20031;-69
2022/03/31 07:38:54;;;;;;;27.80;14.45;;;;;;;12.88;81.15;98533.47;5083400;28;20093;-69
2022/03/31 07:41:19;;;;;;;35.15;14.20;;;;;;;12.74;81.74;98534.38;5096859;28;20027;-70
2022/03/31 07:43:45;;;;;;;37.28;17.27;;;;;;;12.72;83.08;98534.56;5105586;28;20027;-70
2022/03/31 07:46:11;;;;;;;34.30;16.90;;;;;;;12.63;85.42;98526.81;5106345;28;20020;-70
2022/03/31 07:48:37;;;;;;;35.90;19.33;;;;;;;12.72;86.88;98534.56;5109467;28;20023;-71
2022/03/31 07:51:03;;;;;;;43.42;20.55;;;;;;;12.75;86.59;98528.81;5095839;28;20498;-71
2022/03/31 07:53:33;;;;;;;60.85;27.20;;;;;;;12.82;87.96;98531.56;5103629;28;20028;-69
2022/03/31 07:56:02;;;;;;;45.20;20.42;;;;;;;12.86;89.00;98533.66;5095648;28;20047;-70
2022/03/31 07:58:29;;;;;;;33.95;18.75;;;;;;;12.92;89.02;98532.91;5102999;28;20110;-71
2022/03/31 08:00:54;;;;;;;33.65;19.25;;;;;;;12.98;88.64;98536.69;5103822;28;20084;-70
2022/03/31 08:03:22;;;;;;;34.35;19.58;;;;;;;12.95;89.07;98520.91;5093080;28;20027;-69
2022/03/31 08:05:49;;;;;;;31.25;17.70;;;;;;;13.07;89.01;98544.47;5098379;28;20035;-70
2022/03/31 08:08:14;;;;;;;38.58;18.65;;;;;;;13.07;89.32;98540.94;5095302;28;20734;-70
2022/03/31 08:10:41;;;;;;;39.75;18.98;;;;;;;13.09;90.76;98545.09;5095602;28;20023;-70
2022/03/31 08:13:06;;;;;;;28.23;16.90;;;;;;;13.10;91.48;98544.06;5095235;28;20023;-69
2022/03/31 08:15:32;;;;;;;34.00;17.73;;;;;;;13.09;91.36;98534.31;5099094;28;20032;-68
2022/03/31 08:17:58;;;;;;;32.35;17.73;;;;;;;13.11;91.50;98536.81;5100750;28;20472;-70
2022/03/31 08:20:25;;;;;;;26.95;15.88;;;;;;;13.13;92.18;98540.16;5095572;28;20024;-70
2022/03/31 08:22:51;;;;;;;37.10;16.30;;;;;;;13.07;91.69;98522.09;5105043;28;20051;-69
2022/03/31 08:25:17;;;;;;;28.08;15.57;;;;;;;13.10;91.54;98532.47;5095313;28;20063;-69
2022/03/31 08:27:45;;;;;;;27.92;17.25;;;;;;;12.99;91.88;98515.00;5101290;28;20024;-68
2022/03/31 08:30:18;;;;;;;27.80;15.63;;;;;;;13.02;92.44;98528.06;5080929;28;20035;-68
2022/03/31 08:32:46;;;;;;;27.90;16.45;;;;;;;13.01;92.64;98528.25;5065827;28;20494;-69
2022/03/31 08:35:13;;;;;;;30.50;15.90;;;;;;;12.93;93.30;98520.31;5084056;28;20111;-68
2022/03/31 08:37:40;;;;;;;28.10;16.45;;;;;;;12.91;94.00;98531.25;5082544;28;20089;-69
2022/03/31 08:40:08;;;;;;;34.72;16.00;;;;;;;12.89;95.37;98537.81;5096636;28;20053;-68
2022/03/31 08:42:37;;;;;;;25.17;15.30;;;;;;;12.80;94.44;98523.69;5096200;28;20043;-69
2022/03/31 08:45:03;;;;;;;30.92;17.05;;;;;;;12.73;94.83;98524.63;5096799;28;20027;-68
2022/03/31 08:47:28;;;;;;;35.95;20.95;;;;;;;12.72;96.78;98525.66;5087856;28;20024;-69
2022/03/31 08:49:55;;;;;;;34.83;21.67;;;;;;;12.66;98.75;98521.03;5073197;28;20020;-69
2022/03/31 08:52:21;;;;;;;34.55;20.35;;;;;;;12.67;98.95;98533.50;5091581;28;20028;-70
2022/03/31 08:54:47;;;;;;;29.38;19.25;;;;;;;12.64;98.89;98523.94;5093751;28;20028;-72
2022/03/31 08:57:13;;;;;;;31.55;17.70;;;;;;;12.59;99.00;98514.78;5093159;28;20032;-72
2022/03/31 08:59:39;;;;;;;29.13;17.52;;;;;;;12.69;97.80;98521.50;5097498;28;20035;-70
2022/03/31 09:02:23;;;;;;;32.55;17.90;;;;;;;12.65;97.93;98512.16;5092653;28;20035;-69
2022/03/31 09:04:59;;;;;;;30.90;18.75;;;;;;;12.64;97.87;98505.09;5077062;28;20032;-69
2022/03/31 09:07:25;;;;;;;30.05;18.42;;;;;;;12.59;98.30;98486.03;5091783;28;20407;-69
2022/03/31 09:09:51;;;;;;;30.48;18.33;;;;;;;12.63;98.27;98492.69;5096905;28;20031;-68
2022/03/31 09:12:17;;;;;;;33.63;18.63;;;;;;;12.62;98.61;98491.03;5094042;28;20036;-69
2022/03/31 09:14:43;;;;;;;35.20;19.52;;;;;;;12.54;99.96;98471.50;5072487;28;20028;-68
2022/03/31 09:17:14;;;;;;;35.90;18.95;;;;;;;12.60;100.00;98485.00;5096472;28;20107;-68
2022/03/31 09:19:40;;;;;;;36.67;18.88;;;;;;;12.57;100.00;98479.16;5093953;28;20032;-69
2022/03/31 09:22:06;;;;;;;32.72;19.08;;;;;;;12.62;100.00;98485.66;5094064;28;20481;-69
2022/03/31 09:24:32;;;;;;;35.30;18.80;;;;;;;12.62;100.00;98480.28;5096983;28;20072;-68
2022/03/31 09:26:59;;;;;;;32.92;18.38;;;;;;;12.60;100.00;98486.84;5094129;28;20035;-71
2022/03/31 09:29:26;;;;;;;29.30;19.02;;;;;;;12.59;100.00;98479.81;5096942;28;20080;-71
2022/03/31 09:31:53;;;;;;;29.33;18.92;;;;;;;12.64;100.00;98482.78;5093460;28;20440;-70
2022/03/31 09:34:19;;;;;;;36.97;19.40;;;;;;;12.65;100.00;98487.13;5094645;28;20360;-71
2022/03/31 09:36:49;;;;;;;34.15;19.85;;;;;;;12.66;100.00;98499.53;5094912;28;20172;-71
2022/03/31 09:39:17;;;;;;;28.67;17.58;;;;;;;12.67;100.00;98496.66;5082882;28;20519;-72
2022/03/31 09:41:47;;;;;;;27.80;16.67;;;;;;;12.62;99.98;98482.13;5094823;28;20038;-73
2022/03/31 09:44:18;;;;;;;35.22;17.75;;;;;;;12.63;99.68;98481.09;5099705;28;20031;-71
2022/03/31 09:46:45;;;;;;;33.63;18.33;;;;;;;12.62;100.00;98476.75;5098607;28;20438;-72
2022/03/31 09:49:17;;;;;;;31.15;17.42;;;;;;;12.61;100.00;98469.72;5093856;28;20023;-71
2022/03/31 09:51:48;;;;;;;29.55;18.45;;;;;;;12.54;100.00;98447.31;5091455;28;20475;-68
2022/03/31 09:54:15;;;;;;;28.00;17.55;;;;;;;12.68;99.74;98465.22;5075958;28;20024;-68
2022/03/31 09:56:42;;;;;;;28.42;16.27;;;;;;;12.62;100.00;98449.84;5081808;28;20635;-69
2022/03/31 09:59:11;;;;;;;34.85;18.17;;;;;;;12.66;100.00;98453.81;5087052;28;20459;-68
2022/03/31 10:01:38;;;;;;;28.02;17.20;;;;;;;12.67;100.00;98445.56;5090836;28;20035;-68
2022/03/31 10:04:06;;;;;;;27.15;15.90;;;;;;;12.70;100.00;98442.47;5084067;28;20085;-68
2022/03/31 10:06:34;;;;;;;36.78;16.75;;;;;;;12.69;100.00;98442.66;5096363;28;20038;-67
2022/03/31 10:09:00;;;;;;;30.52;16.45;;;;;;;12.67;100.00;98442.88;5092722;28;20545;-68
2022/03/31 10:11:28;;;;;;;37.70;18.10;;;;;;;12.70;100.00;98438.94;5080449;28;20028;-69
2022/03/31 10:14:44;;;;;;;28.85;16.95;;;;;;;12.72;100.00;98434.22;5098480;28;20039;-69
2022/03/31 10:17:10;;;;;;;27.15;16.92;;;;;;;12.70;100.00;98426.34;5055359;28;20032;-68
2022/03/31 10:19:39;;;;;;;35.03;17.15;;;;;;;12.73;100.00;98425.94;5082298;28;20028;-68
2022/03/31 10:22:10;;;;;;;26.25;15.90;;;;;;;12.76;100.00;98422.88;5096236;28;20024;-68
2022/03/31 10:24:41;;;;;;;25.88;15.10;;;;;;;12.68;100.00;98414.13;5083928;28;20032;-67
2022/03/31 10:27:09;;;;;;;26.35;15.32;;;;;;;12.72;100.00;98420.78;5100624;28;20023;-69
2022/03/31 10:29:40;;;;;;;24.45;14.60;;;;;;;12.68;100.00;98406.06;5093551;28;20715;-69
2022/03/31 10:32:15;;;;;;;25.55;15.10;;;;;;;12.72;100.00;98418.06;5097752;28;20556;-68
2022/03/31 10:34:44;;;;;;;26.80;15.23;;;;;;;12.70;100.00;98403.97;5098133;28;20028;-71
2022/03/31 10:37:10;;;;;;;26.05;15.23;;;;;;;12.67;100.00;98388.25;5093468;28;20119;-68
2022/03/31 10:39:36;;;;;;;28.65;15.13;;;;;;;12.56;100.00;98356.50;5073174;28;20123;-68
2022/03/31 10:42:07;;;;;;;24.70;14.05;;;;;;;12.65;100.00;98366.09;5100462;28;20687;-68
2022/03/31 10:44:33;;;;;;;26.35;13.98;;;;;;;12.50;100.00;98349.22;5081194;28;20656;-68
2022/03/31 10:47:08;;;;;;;30.33;15.77;;;;;;;12.61;100.00;98357.56;5088307;28;20619;-68
2022/03/31 10:49:34;;;;;;;29.25;16.02;;;;;;;12.60;100.00;98342.47;5095217;28;20032;-68
2022/03/31 10:52:17;;;;;;;26.85;15.05;;;;;;;12.59;100.00;98322.00;5098056;28;20486;-68
2022/03/31 10:54:43;;;;;;;25.20;15.07;;;;;;;12.61;100.00;98327.19;5096796;28;20028;-68
2022/03/31 10:57:13;;;;;;;28.55;15.98;;;;;;;12.59;100.00;98324.69;5093995;28;20475;-68
2022/03/31 10:59:40;;;;;;;29.30;15.52;;;;;;;12.56;100.00;98321.56;5091303;28;20027;-68
2022/03/31 11:02:10;;;;;;;29.92;15.80;;;;;;;12.62;100.00;98335.06;5101994;28;20027;-67
2022/03/31 11:04:45;;;;;;;28.75;15.65;;;;;;;12.55;100.00;98325.28;5090823;28;20051;-68
2022/03/31 11:07:20;;;;;;;31.05;16.58;;;;;;;12.55;100.00;98322.59;5083633;28;20024;-68
2022/03/31 11:09:47;;;;;;;29.55;16.10;;;;;;;12.57;100.00;98315.13;5091949;28;20062;-68
2022/03/31 11:12:24;;;;;;;34.72;17.13;;;;;;;12.56;100.00;98290.13;5085749;28;20031;-68
2022/03/31 11:14:56;;;;;;;28.15;15.68;;;;;;;12.60;100.00;98286.00;5082242;28;20024;-68
2022/03/31 11:17:22;;;;;;;25.08;15.85;;;;;;;12.61;100.00;98300.28;5087893;28;20094;-69
2022/03/31 11:19:48;;;;;;;27.38;15.88;;;;;;;12.64;100.00;98303.41;5102478;28;20031;-69